createdAt,value
2017-07-19T00:00:53.358Z,20.60
2017-07-19T00:03:19.771Z,20.40
2017-07-19T00:05:46.160Z,20.50
2017-07-19T00:08:13.311Z,20.60
2017-07-19T00:10:39.704Z,20.60
2017-07-19T00:13:06.171Z,20.60
2017-07-19T00:15:32.579Z,20.60
2017-07-19T00:17:58.942Z,20.60
2017-07-19T00:20:25.342Z,20.50
2017-07-19T00:22:51.727Z,20.50
2017-07-19T00:25:18.424Z,20.50
2017-07-19T00:27:44.863Z,20.50
2017-07-19T00:30:11.261Z,20.40
2017-07-19T00:32:37.692Z,20.40
2017-07-19T00:35:04.111Z,20.30
2017-07-19T00:37:30.928Z,20.30
2017-07-19T00:39:57.381Z,20.30
2017-07-19T00:42:23.784Z,20.30
2017-07-19T00:44:50.198Z,20.30
2017-07-19T00:47:16.580Z,20.30
2017-07-19T00:49:43.011Z,20.30
2017-07-19T00:52:09.395Z,20.30
2017-07-19T00:54:35.783Z,20.20
2017-07-19T00:57:02.200Z,20.20
2017-07-19T00:59:35.752Z,20.10
2017-07-19T01:02:02.179Z,20.10
2017-07-19T01:04:28.595Z,20.10
2017-07-19T01:06:54.979Z,20.10
2017-07-19T01:09:22.127Z,20.00
2017-07-19T01:11:49.251Z,20.00
2017-07-19T01:14:15.659Z,20.00
2017-07-19T01:16:42.064Z,20.00
2017-07-19T01:19:08.476Z,20.00
2017-07-19T01:21:35.599Z,19.80
2017-07-19T01:24:02.114Z,19.80
2017-07-19T01:26:28.527Z,19.80
2017-07-19T01:28:54.895Z,19.70
2017-07-19T01:31:21.292Z,19.70
2017-07-19T01:33:47.763Z,19.60
2017-07-19T01:36:14.157Z,19.60
2017-07-19T01:38:40.576Z,19.50
2017-07-19T01:41:06.999Z,19.50
2017-07-19T01:43:34.169Z,19.50
2017-07-19T01:46:00.599Z,19.50
2017-07-19T01:48:27.072Z,19.50
2017-07-19T01:50:53.528Z,19.50
2017-07-19T01:53:20.159Z,19.40
2017-07-19T01:55:46.692Z,19.40
2017-07-19T01:58:13.100Z,19.40
2017-07-19T02:00:39.548Z,19.40
2017-07-19T02:03:05.982Z,19.40
2017-07-19T02:05:32.412Z,19.30
2017-07-19T02:07:58.847Z,19.30
2017-07-19T02:10:25.234Z,19.30
2017-07-19T02:12:51.734Z,19.30
2017-07-19T02:15:18.139Z,19.20
2017-07-19T02:17:44.526Z,19.20
2017-07-19T02:20:11.755Z,19.20
2017-07-19T02:22:38.983Z,19.10
2017-07-19T02:25:05.355Z,19.10
2017-07-19T02:27:32.461Z,19.10
2017-07-19T02:29:58.867Z,19.10
2017-07-19T02:32:25.295Z,19.10
2017-07-19T02:34:51.718Z,19.10
2017-07-19T02:37:18.463Z,19.10
2017-07-19T02:39:45.001Z,19.10
2017-07-19T02:42:11.439Z,19.00
2017-07-19T02:44:37.867Z,19.00
2017-07-19T02:47:20.180Z,19.00
2017-07-19T02:49:46.601Z,19.00
2017-07-19T02:52:12.996Z,18.90
2017-07-19T02:54:39.491Z,18.90
2017-07-19T02:57:05.879Z,18.80
2017-07-19T02:59:32.382Z,18.80
2017-07-19T03:01:58.778Z,18.80
2017-07-19T03:04:25.167Z,18.80
2017-07-19T03:06:52.321Z,18.70
2017-07-19T03:09:19.710Z,18.70
2017-07-19T03:11:46.140Z,18.70
2017-07-19T03:14:12.596Z,18.70
2017-07-19T03:16:39.003Z,18.70
2017-07-19T03:19:05.375Z,18.60
2017-07-19T03:21:31.738Z,18.60
2017-07-19T03:23:58.970Z,18.60
2017-07-19T03:26:25.448Z,18.50
2017-07-19T03:28:51.839Z,18.60
2017-07-19T03:31:18.247Z,18.50
2017-07-19T03:33:45.176Z,18.50
2017-07-19T03:36:12.344Z,18.50
2017-07-19T03:38:38.782Z,18.50
2017-07-19T03:41:05.150Z,18.50
2017-07-19T03:43:31.555Z,18.50
2017-07-19T03:45:57.920Z,18.50
2017-07-19T03:48:32.024Z,18.40
2017-07-19T03:50:59.136Z,18.30
2017-07-19T03:53:25.540Z,18.30
2017-07-19T03:55:51.963Z,18.30
2017-07-19T03:58:18.336Z,18.30
2017-07-19T04:00:44.694Z,18.30
2017-07-19T04:03:11.083Z,18.40
2017-07-19T04:05:37.456Z,18.40
2017-07-19T04:08:03.992Z,18.40
2017-07-19T04:10:31.131Z,18.50
2017-07-19T04:12:57.527Z,18.40
2017-07-19T04:15:23.907Z,18.40
2017-07-19T04:17:51.028Z,18.40
2017-07-19T04:20:17.427Z,18.40
2017-07-19T04:22:43.815Z,18.40
2017-07-19T04:25:10.302Z,18.40
2017-07-19T04:27:36.667Z,18.50
2017-07-19T04:30:03.080Z,18.50
2017-07-19T04:32:29.563Z,18.50
2017-07-19T04:34:56.687Z,18.70
2017-07-19T04:37:23.078Z,18.70
2017-07-19T04:39:49.520Z,18.70
2017-07-19T04:42:15.941Z,18.70
2017-07-19T04:44:42.369Z,18.80
2017-07-19T04:47:08.754Z,18.90
2017-07-19T04:49:35.139Z,19.10
2017-07-19T04:52:01.578Z,19.20
2017-07-19T04:54:27.961Z,19.30
2017-07-19T04:56:54.387Z,19.40
2017-07-19T04:59:20.775Z,19.40
2017-07-19T05:01:47.156Z,19.50
2017-07-19T05:04:13.567Z,19.60
2017-07-19T05:06:39.959Z,19.60
2017-07-19T05:09:06.355Z,19.70
2017-07-19T05:11:33.499Z,19.80
2017-07-19T05:13:59.887Z,19.80
2017-07-19T05:16:26.315Z,19.90
2017-07-19T05:18:52.696Z,20.00
2017-07-19T05:21:19.099Z,20.10
2017-07-19T05:23:45.480Z,20.20
2017-07-19T05:26:12.597Z,20.40
2017-07-19T05:28:39.023Z,20.40
2017-07-19T05:31:05.436Z,20.40
2017-07-19T05:33:31.861Z,20.50
2017-07-19T05:35:58.267Z,20.50
2017-07-19T05:38:24.672Z,20.50
2017-07-19T05:40:51.798Z,20.60
2017-07-19T05:43:18.229Z,20.60
2017-07-19T05:45:44.631Z,20.60
2017-07-19T05:48:11.008Z,20.70
2017-07-19T05:50:37.408Z,20.70
2017-07-19T05:53:03.790Z,20.70
2017-07-19T05:55:30.907Z,20.80
2017-07-19T05:57:57.304Z,20.80
2017-07-19T06:00:23.774Z,20.80
2017-07-19T06:02:50.308Z,20.90
2017-07-19T06:05:16.795Z,20.90
2017-07-19T06:07:43.199Z,21.00
2017-07-19T06:10:10.307Z,21.10
2017-07-19T06:12:36.687Z,21.10
2017-07-19T06:15:03.830Z,21.20
2017-07-19T06:17:30.940Z,21.30
2017-07-19T06:19:57.355Z,21.30
2017-07-19T06:22:23.747Z,21.30
2017-07-19T06:24:50.127Z,21.40
2017-07-19T06:27:16.550Z,21.50
2017-07-19T06:29:42.922Z,21.50
2017-07-19T06:32:09.298Z,21.50
2017-07-19T06:34:35.751Z,21.60
2017-07-19T06:37:02.148Z,21.70
2017-07-19T06:39:28.566Z,21.70
2017-07-19T06:41:54.947Z,21.70
2017-07-19T06:44:21.359Z,21.80
2017-07-19T06:46:47.747Z,21.90
2017-07-19T06:49:14.431Z,22.00
2017-07-19T06:51:40.811Z,22.00
2017-07-19T06:54:07.183Z,22.10
2017-07-19T06:56:34.332Z,22.20
2017-07-19T06:59:01.472Z,22.20
2017-07-19T07:01:28.626Z,22.40
2017-07-19T07:03:56.076Z,22.40
2017-07-19T07:06:23.094Z,22.40
2017-07-19T07:08:49.559Z,22.50
2017-07-19T07:11:16.789Z,22.50
2017-07-19T07:13:43.203Z,22.50
2017-07-19T07:16:09.615Z,22.60
2017-07-19T07:18:35.983Z,22.60
2017-07-19T07:21:02.367Z,22.70
2017-07-19T07:23:28.799Z,22.70
2017-07-19T07:25:55.204Z,22.80
2017-07-19T07:28:22.324Z,22.90
2017-07-19T07:30:48.701Z,22.80
2017-07-19T07:33:15.143Z,22.90
2017-07-19T07:35:41.516Z,23.00
2017-07-19T07:38:07.887Z,23.10
2017-07-19T07:40:34.318Z,23.10
2017-07-19T07:43:01.475Z,23.30
2017-07-19T07:45:28.603Z,23.30
2017-07-19T07:47:54.987Z,23.30
2017-07-19T07:50:21.399Z,23.30
2017-07-19T07:52:47.780Z,23.40
2017-07-19T07:55:14.184Z,23.50
2017-07-19T07:57:40.562Z,23.50
2017-07-19T08:00:06.967Z,23.60
2017-07-19T08:02:33.375Z,23.60
2017-07-19T08:04:59.760Z,23.70
2017-07-19T08:07:26.140Z,23.80
2017-07-19T08:09:52.539Z,23.80
2017-07-19T08:12:19.653Z,24.00
2017-07-19T08:14:46.052Z,24.00
2017-07-19T08:17:12.459Z,24.10
2017-07-19T08:19:38.868Z,24.10
2017-07-19T08:22:05.248Z,24.10
2017-07-19T08:24:31.651Z,24.20
2017-07-19T08:26:58.795Z,24.20
2017-07-19T08:29:25.917Z,24.30
2017-07-19T08:31:52.307Z,24.30
2017-07-19T08:34:18.747Z,24.40
2017-07-19T08:36:45.152Z,24.40
2017-07-19T08:39:12.376Z,24.60
2017-07-19T08:41:38.759Z,24.60
2017-07-19T08:44:05.180Z,24.60
2017-07-19T08:46:31.575Z,24.70
2017-07-19T08:48:57.987Z,24.70
2017-07-19T08:51:24.391Z,24.90
2017-07-19T08:53:50.779Z,25.00
2017-07-19T08:56:17.403Z,25.00
2017-07-19T08:58:43.771Z,25.10
2017-07-19T09:01:10.180Z,25.10
2017-07-19T09:03:36.597Z,25.20
2017-07-19T09:06:02.974Z,25.20
2017-07-19T09:08:29.356Z,25.30
2017-07-19T09:10:55.755Z,25.30
2017-07-19T09:13:22.138Z,25.50
2017-07-19T09:15:48.564Z,25.60
2017-07-19T09:18:14.960Z,25.80
2017-07-19T09:20:41.344Z,25.90
2017-07-19T09:23:08.487Z,26.00
2017-07-19T09:25:34.851Z,26.00
2017-07-19T09:28:01.254Z,26.10
2017-07-19T09:30:28.367Z,26.10
2017-07-19T09:32:54.955Z,26.10
2017-07-19T09:35:21.335Z,26.20
2017-07-19T09:37:47.730Z,26.20
2017-07-19T09:40:14.139Z,26.30
2017-07-19T09:42:41.256Z,26.40
2017-07-19T09:45:07.672Z,26.40
2017-07-19T09:47:34.052Z,26.50
2017-07-19T09:50:00.442Z,26.60
2017-07-19T09:52:26.836Z,26.60
2017-07-19T09:54:53.199Z,26.60
2017-07-19T09:57:19.599Z,26.70
2017-07-19T09:59:46.006Z,26.80
2017-07-19T10:02:12.391Z,26.80
2017-07-19T10:04:38.799Z,26.80
2017-07-19T10:07:05.162Z,26.90
2017-07-19T10:09:31.560Z,27.00
2017-07-19T10:11:57.972Z,27.10
2017-07-19T10:14:24.347Z,27.10
2017-07-19T10:16:50.741Z,27.10
2017-07-19T10:19:17.120Z,27.30
2017-07-19T10:21:43.497Z,27.30
2017-07-19T10:24:10.665Z,27.40
2017-07-19T10:26:37.080Z,27.40
2017-07-19T10:29:04.198Z,27.60
2017-07-19T10:31:30.568Z,27.60
2017-07-19T10:33:57.748Z,27.80
2017-07-19T10:36:24.156Z,27.70
2017-07-19T10:38:50.537Z,27.90
2017-07-19T10:41:16.928Z,27.90
2017-07-19T10:43:43.517Z,28.10
2017-07-19T10:46:09.899Z,28.10
2017-07-19T10:48:36.276Z,28.10
2017-07-19T10:51:02.668Z,28.20
2017-07-19T10:53:29.099Z,28.20
2017-07-19T10:55:55.514Z,28.40
2017-07-19T10:58:21.907Z,28.50
2017-07-19T11:00:48.312Z,28.50
2017-07-19T11:03:14.760Z,28.50
2017-07-19T11:05:41.155Z,28.60
2017-07-19T11:08:07.540Z,28.70
2017-07-19T11:10:33.966Z,28.90
2017-07-19T11:13:00.359Z,29.00
2017-07-19T11:15:26.747Z,29.10
2017-07-19T11:17:53.176Z,29.10
2017-07-19T11:20:19.559Z,29.20
2017-07-19T11:22:45.939Z,29.30
2017-07-19T11:25:12.368Z,29.30
2017-07-19T11:27:38.731Z,29.40
2017-07-19T11:30:05.148Z,29.50
2017-07-19T11:32:31.538Z,29.70
2017-07-19T11:34:57.918Z,29.80
2017-07-19T11:37:24.332Z,29.90
2017-07-19T11:39:50.719Z,30.00
2017-07-19T11:42:17.136Z,30.00
2017-07-19T11:44:43.543Z,30.10
2017-07-19T11:47:10.064Z,30.10
2017-07-19T11:49:36.439Z,30.10
2017-07-19T11:52:09.879Z,30.10
2017-07-19T11:54:36.271Z,30.30
2017-07-19T11:57:02.639Z,30.60
2017-07-19T11:59:29.055Z,30.80
2017-07-19T12:01:55.444Z,30.80
2017-07-19T12:04:21.852Z,30.90
2017-07-19T12:06:48.236Z,31.00
2017-07-19T12:09:14.614Z,31.10
2017-07-19T12:11:41.007Z,31.40
2017-07-19T12:14:07.392Z,31.50
2017-07-19T12:16:33.784Z,31.70
2017-07-19T12:19:00.171Z,31.80
2017-07-19T12:21:27.319Z,32.30
2017-07-19T12:23:54.478Z,32.50
2017-07-19T12:26:21.611Z,32.60
2017-07-19T12:28:48.756Z,32.70
2017-07-19T12:31:15.159Z,32.60
2017-07-19T12:33:41.548Z,32.60
2017-07-19T12:36:07.987Z,32.60
2017-07-19T12:38:34.363Z,32.80
2017-07-19T12:41:00.735Z,32.80
2017-07-19T12:43:27.144Z,33.00
2017-07-19T12:45:53.551Z,33.00
2017-07-19T12:48:19.927Z,32.90
2017-07-19T12:50:47.079Z,32.70
2017-07-19T12:53:14.215Z,32.90
2017-07-19T12:55:40.606Z,32.90
2017-07-19T12:58:07.020Z,32.90
2017-07-19T13:00:33.456Z,32.80
2017-07-19T13:02:59.858Z,32.80
2017-07-19T13:05:27.107Z,32.40
2017-07-19T13:07:54.308Z,32.20
2017-07-19T13:10:20.748Z,32.10
2017-07-19T13:12:47.163Z,32.00
2017-07-19T13:15:13.571Z,32.00
2017-07-19T13:17:39.988Z,31.90
2017-07-19T13:20:07.151Z,31.70
2017-07-19T13:22:33.611Z,31.70
2017-07-19T13:25:00.071Z,31.60
2017-07-19T13:27:26.454Z,31.50
2017-07-19T13:29:52.863Z,31.40
2017-07-19T13:32:20.023Z,31.30
2017-07-19T13:34:47.159Z,31.40
2017-07-19T13:37:13.575Z,31.30
2017-07-19T13:39:39.968Z,31.20
2017-07-19T13:42:06.668Z,31.30
2017-07-19T13:44:33.837Z,31.50
2017-07-19T13:47:00.952Z,31.40
2017-07-19T13:49:27.372Z,31.40
2017-07-19T13:51:54.203Z,31.40
2017-07-19T13:54:20.754Z,31.20
2017-07-19T13:56:47.342Z,30.90
2017-07-19T13:59:13.758Z,30.70
2017-07-19T14:01:40.435Z,30.40
2017-07-19T14:04:06.975Z,30.20
2017-07-19T14:06:33.443Z,30.00
2017-07-19T14:09:00.632Z,29.90
2017-07-19T14:11:27.084Z,29.90
2017-07-19T14:13:53.533Z,29.90
2017-07-19T14:16:20.024Z,29.90
2017-07-19T14:18:46.702Z,29.80
2017-07-19T14:21:13.228Z,29.80
2017-07-19T14:23:39.707Z,29.80
2017-07-19T14:26:07.008Z,29.70
2017-07-19T14:28:33.474Z,29.70
2017-07-19T14:30:59.993Z,29.70
2017-07-19T14:33:26.621Z,29.80
2017-07-19T14:35:53.265Z,29.90
2017-07-19T14:38:19.649Z,30.00
2017-07-19T14:40:46.032Z,30.10
2017-07-19T14:43:12.471Z,30.60
2017-07-19T14:45:38.849Z,30.90
2017-07-19T14:48:05.985Z,31.20
2017-07-19T14:50:32.403Z,31.20
2017-07-19T14:52:58.791Z,31.40
2017-07-19T14:55:25.196Z,31.50
2017-07-19T14:57:52.343Z,31.60
2017-07-19T15:00:19.463Z,31.60
2017-07-19T15:02:45.892Z,31.50
2017-07-19T15:05:12.282Z,31.30
2017-07-19T15:07:38.700Z,31.00
2017-07-19T15:10:06.673Z,31.20
2017-07-19T15:12:33.080Z,31.20
2017-07-19T15:14:59.495Z,31.10
2017-07-19T15:17:25.860Z,30.90
2017-07-19T15:19:52.261Z,30.80
2017-07-19T15:22:18.676Z,30.70
2017-07-19T15:24:45.083Z,30.60
2017-07-19T15:27:11.475Z,30.40
2017-07-19T15:29:37.867Z,30.60
2017-07-19T15:32:04.248Z,30.70
2017-07-19T15:34:30.728Z,30.70
2017-07-19T15:36:57.178Z,30.60
2017-07-19T15:39:23.595Z,30.60
2017-07-19T15:41:49.984Z,30.40
2017-07-19T15:44:17.170Z,30.30
2017-07-19T15:46:43.564Z,30.20
2017-07-19T15:49:09.956Z,30.20
2017-07-19T15:51:36.360Z,30.20
2017-07-19T15:54:02.755Z,30.10
2017-07-19T15:56:29.260Z,30.00
2017-07-19T15:58:55.639Z,30.10
2017-07-19T16:01:22.031Z,30.00
2017-07-19T16:03:48.535Z,29.70
2017-07-19T16:06:14.915Z,29.50
2017-07-19T16:08:41.295Z,29.50
2017-07-19T16:11:07.704Z,29.40
2017-07-19T16:13:34.923Z,29.30
2017-07-19T16:16:01.323Z,29.30
2017-07-19T16:18:27.714Z,29.10
2017-07-19T16:20:54.080Z,29.00
2017-07-19T16:23:20.509Z,28.90
2017-07-19T16:25:46.890Z,28.80
2017-07-19T16:28:13.283Z,28.70
2017-07-19T16:30:40.410Z,28.80
2017-07-19T16:33:06.912Z,28.80
2017-07-19T16:35:34.024Z,28.70
2017-07-19T16:38:00.431Z,28.70
2017-07-19T16:40:26.840Z,28.60
2017-07-19T16:42:54.140Z,28.40
2017-07-19T16:45:20.524Z,28.40
2017-07-19T16:47:46.928Z,28.40
2017-07-19T16:50:13.319Z,28.40
2017-07-19T16:52:39.698Z,28.20
2017-07-19T16:55:06.126Z,28.00
2017-07-19T16:57:32.500Z,27.90
2017-07-19T16:59:58.877Z,27.50
2017-07-19T17:02:25.267Z,27.50
2017-07-19T17:04:51.684Z,27.40
2017-07-19T17:07:18.059Z,27.40
2017-07-19T17:09:44.439Z,27.50
2017-07-19T17:12:10.876Z,27.60
2017-07-19T17:14:37.334Z,27.50
2017-07-19T17:17:04.193Z,27.40
2017-07-19T17:19:30.583Z,27.30
2017-07-19T17:21:56.986Z,27.30
2017-07-19T17:24:23.376Z,27.30
2017-07-19T17:26:49.763Z,27.30
2017-07-19T17:29:16.204Z,27.20
2017-07-19T17:31:50.540Z,27.00
2017-07-19T17:34:16.959Z,27.00
2017-07-19T17:36:43.344Z,27.00
2017-07-19T17:39:16.916Z,27.00
2017-07-19T17:41:43.287Z,26.90
2017-07-19T17:44:09.663Z,26.90
2017-07-19T17:46:36.800Z,26.80
2017-07-19T17:49:04.043Z,26.80
2017-07-19T17:51:30.439Z,26.80
2017-07-19T17:53:56.832Z,26.70
2017-07-19T17:56:23.259Z,26.70
2017-07-19T17:58:49.649Z,26.60
2017-07-19T18:01:16.084Z,26.60
2017-07-19T18:03:42.475Z,26.60
2017-07-19T18:06:08.896Z,26.50
2017-07-19T18:08:35.275Z,26.40
2017-07-19T18:11:01.652Z,26.40
2017-07-19T18:13:28.063Z,26.40
2017-07-19T18:15:54.432Z,26.40
2017-07-19T18:18:20.849Z,26.30
2017-07-19T18:20:47.242Z,26.40
2017-07-19T18:23:13.708Z,26.40
2017-07-19T18:25:40.821Z,26.20
2017-07-19T18:28:07.216Z,26.20
2017-07-19T18:30:33.639Z,26.00
2017-07-19T18:33:00.035Z,26.00
2017-07-19T18:35:26.415Z,26.00
2017-07-19T18:37:52.807Z,26.00
2017-07-19T18:40:19.203Z,25.90
2017-07-19T18:42:45.608Z,25.90
2017-07-19T18:45:12.039Z,25.90
2017-07-19T18:47:38.452Z,26.00
2017-07-19T18:50:04.840Z,25.90
2017-07-19T18:52:31.244Z,25.80
2017-07-19T18:54:57.629Z,25.80
2017-07-19T18:57:24.784Z,25.70
2017-07-19T18:59:51.159Z,25.70
2017-07-19T19:02:17.534Z,25.70
2017-07-19T19:04:43.946Z,25.70
2017-07-19T19:07:10.319Z,25.60
2017-07-19T19:09:37.465Z,25.40
2017-07-19T19:12:03.884Z,25.40
2017-07-19T19:14:30.388Z,25.50
2017-07-19T19:16:56.791Z,25.40
2017-07-19T19:19:23.204Z,25.30
2017-07-19T19:21:49.603Z,25.40
2017-07-19T19:24:16.019Z,25.30
2017-07-19T19:26:42.400Z,25.30
2017-07-19T19:29:09.556Z,25.30
2017-07-19T19:31:35.968Z,25.30
2017-07-19T19:34:02.479Z,25.20
2017-07-19T19:36:28.876Z,25.10
2017-07-19T19:38:55.298Z,25.00
2017-07-19T19:41:21.694Z,24.90
2017-07-19T19:43:48.604Z,24.90
2017-07-19T19:46:15.559Z,24.70
2017-07-19T19:48:42.885Z,24.40
2017-07-19T19:51:09.300Z,24.40
2017-07-19T19:53:36.008Z,24.40
2017-07-19T19:56:04.091Z,24.20
2017-07-19T19:58:30.503Z,24.20
2017-07-19T20:00:56.915Z,24.10
2017-07-19T20:03:24.101Z,24.00
2017-07-19T20:05:50.688Z,24.00
2017-07-19T20:08:18.059Z,23.90
2017-07-19T20:10:44.585Z,23.80
2017-07-19T20:13:11.048Z,23.80
2017-07-19T20:15:37.479Z,23.70
2017-07-19T20:18:03.871Z,23.60
2017-07-19T20:20:30.247Z,23.70
2017-07-19T20:22:56.687Z,23.60
2017-07-19T20:25:23.080Z,23.50
2017-07-19T20:27:49.490Z,23.50
2017-07-19T20:30:15.911Z,23.40
2017-07-19T20:32:43.092Z,23.20
2017-07-19T20:35:09.531Z,23.20
2017-07-19T20:37:35.924Z,23.20
2017-07-19T20:40:03.052Z,23.10
2017-07-19T20:42:29.500Z,23.10
2017-07-19T20:44:56.631Z,23.00
2017-07-19T20:47:23.007Z,23.00
2017-07-19T20:49:49.431Z,22.90
2017-07-19T20:52:15.816Z,22.80
2017-07-19T20:54:42.251Z,22.80
2017-07-19T20:57:08.641Z,22.70
2017-07-19T20:59:35.061Z,22.60
2017-07-19T21:02:01.532Z,22.60
2017-07-19T21:04:28.800Z,22.60
2017-07-19T21:06:55.184Z,22.60
2017-07-19T21:09:21.607Z,22.60
2017-07-19T21:11:48.051Z,22.50
2017-07-19T21:14:14.502Z,22.50
2017-07-19T21:16:40.911Z,22.50
2017-07-19T21:19:07.332Z,22.40
2017-07-19T21:21:34.447Z,22.30
2017-07-19T21:24:00.879Z,22.30
2017-07-19T21:26:27.269Z,22.30
2017-07-19T21:28:53.679Z,22.30
2017-07-19T21:31:20.811Z,22.20
2017-07-19T21:34:02.254Z,22.20
2017-07-19T21:36:28.640Z,22.20
2017-07-19T21:38:55.775Z,22.10
2017-07-19T21:41:22.220Z,22.10
2017-07-19T21:43:49.412Z,22.00
2017-07-19T21:46:15.815Z,22.00
2017-07-19T21:48:42.931Z,21.90
2017-07-19T21:51:09.348Z,21.90
2017-07-19T21:53:35.774Z,21.90
2017-07-19T21:56:02.151Z,21.90
2017-07-19T21:58:29.268Z,21.80
2017-07-19T22:00:55.683Z,21.80
2017-07-19T22:03:22.133Z,21.80
2017-07-19T22:05:48.530Z,21.70
2017-07-19T22:08:14.935Z,21.60
2017-07-19T22:10:42.084Z,21.50
2017-07-19T22:13:09.279Z,21.50
2017-07-19T22:15:35.650Z,21.40
2017-07-19T22:18:02.060Z,21.40
2017-07-19T22:20:28.463Z,21.40
2017-07-19T22:22:54.912Z,21.30
2017-07-19T22:25:21.332Z,21.30
2017-07-19T22:27:47.727Z,21.20
2017-07-19T22:30:14.836Z,21.10
2017-07-19T22:32:41.279Z,21.10
2017-07-19T22:35:07.661Z,21.10
2017-07-19T22:37:34.048Z,21.10
2017-07-19T22:40:00.475Z,21.00
2017-07-19T22:42:26.871Z,21.00
2017-07-19T22:44:53.323Z,21.10
2017-07-19T22:47:19.704Z,21.00
2017-07-19T22:49:46.961Z,21.00
2017-07-19T22:52:14.072Z,21.00
2017-07-19T22:54:40.478Z,21.00
2017-07-19T22:57:06.900Z,21.00
2017-07-19T22:59:33.269Z,21.00
2017-07-19T23:01:59.663Z,21.00
2017-07-19T23:04:26.139Z,21.00
2017-07-19T23:06:52.510Z,20.90
2017-07-19T23:09:19.679Z,20.90
2017-07-19T23:11:46.091Z,20.80
2017-07-19T23:14:12.588Z,20.80
2017-07-19T23:16:38.965Z,20.80
2017-07-19T23:19:05.467Z,20.70
2017-07-19T23:21:31.840Z,20.80
2017-07-19T23:23:58.280Z,20.70
2017-07-19T23:26:24.675Z,20.80
2017-07-19T23:28:51.797Z,20.80
2017-07-19T23:31:18.208Z,20.70
2017-07-19T23:33:44.623Z,20.70
2017-07-19T23:36:11.019Z,20.70
2017-07-19T23:38:37.424Z,20.70
2017-07-19T23:41:03.824Z,20.70
2017-07-19T23:43:30.255Z,20.70
2017-07-19T23:45:56.675Z,20.60
2017-07-19T23:48:23.061Z,20.60
2017-07-19T23:50:49.433Z,20.60
2017-07-19T23:53:15.923Z,20.50
2017-07-19T23:55:42.283Z,20.50
2017-07-19T23:58:09.423Z,20.50
